Market Drayton, United Kingdom
Current Conditions -  °F | °C
As of 1:50 PM on Thursday 23 Oct 2014 (Local Time) from EGOS Reporting Station
Drizzle Drizzle  
Wind Chill: 59°   Ceiling: 2000
Heat Index: 59°   Visibility: 6mi
Dew Point: 55°   Wind: 15mph
Humidity: 88%   Direction: 200°SSW
Pressure: 29.94"   Gusts: NA
Location:  52.91°N, 2.49°W
Report Text: EGOS 231250Z 20013KT 9999 -DZ FEW015 BKN020 15/13 Q1014 WHT NOSIG
Loading
Personal Weather Stations






























Interactive Weather Map
Tropical Storm Tracking
New forecast layout! Learn more

10-Day Weather Forecast

Advertisements
Track Severe Weather on mobile